Time;durP1;ratioP1;P1;durP2;ratioP2;P2;SDS_P1;SDS_P2;PMS_P1;PMS_P2;Temp;Humidity;BMP_temperature;BMP_pressure;BME280_temperature;BME280_humidity;BME280_pressure;Samples;Min_cycle;Max_cycle;Signal;HPM_P1;HPM_P2
2022/01/08 00:02:09;;;;;;;0.77;0.77;;;-4.40;99.90;;;;;;5073796;28;20207;-63
2022/01/08 00:04:35;;;;;;;0.20;0.20;;;-4.40;99.90;;;;;;5073792;28;20278;-63
2022/01/08 00:07:01;;;;;;;0.23;0.23;;;-4.40;99.90;;;;;;5073524;28;20337;-64
2022/01/08 00:09:27;;;;;;;1.43;1.33;;;-4.50;99.90;;;;;;5074211;28;20670;-63
2022/01/08 00:11:53;;;;;;;0.37;0.37;;;-4.50;99.90;;;;;;5074327;28;20225;-64
2022/01/08 00:14:21;;;;;;;1.53;1.43;;;-4.50;99.90;;;;;;5073848;28;20182;-63
2022/01/08 00:16:48;;;;;;;0.30;0.30;;;-4.50;99.90;;;;;;5074152;28;20259;-63
2022/01/08 00:19:14;;;;;;;0.03;0.03;;;-4.50;99.90;;;;;;5074058;28;20617;-63
2022/01/08 00:21:40;;;;;;;5.40;2.87;;;-4.40;99.90;;;;;;5073749;28;20167;-63
2022/01/08 00:24:06;;;;;;;0.60;0.60;;;-4.40;99.90;;;;;;5073375;28;20212;-63
2022/01/08 00:26:32;;;;;;;0.30;0.30;;;-4.40;99.90;;;;;;5073804;28;20556;-63
2022/01/08 00:28:59;;;;;;;1.17;1.17;;;-4.30;99.90;;;;;;5079979;28;20940;-63
2022/01/08 00:31:24;;;;;;;0.20;0.20;;;-4.30;99.90;;;;;;5093617;28;20614;-64
2022/01/08 00:33:52;;;;;;;0.20;0.20;;;-4.30;99.90;;;;;;5093945;28;20280;-63
2022/01/08 00:36:17;;;;;;;0.10;0.10;;;-4.30;99.90;;;;;;5093860;28;20264;-63
2022/01/08 00:38:43;;;;;;;2.63;1.00;;;-4.30;99.90;;;;;;5093666;28;20617;-64
2022/01/08 00:41:09;;;;;;;0.53;0.50;;;-4.30;99.90;;;;;;5092125;28;20189;-63
2022/01/08 00:43:37;;;;;;;5.10;0.63;;;-4.40;99.90;;;;;;5093372;28;20182;-63
2022/01/08 00:46:03;;;;;;;0.03;0.03;;;-4.40;99.90;;;;;;5093196;28;20182;-64
2022/01/08 00:48:29;;;;;;;2.83;2.30;;;-4.40;99.90;;;;;;5093678;28;20186;-64
2022/01/08 00:50:54;;;;;;;0.40;0.40;;;-4.40;99.90;;;;;;5093602;28;20244;-63
2022/01/08 00:53:20;;;;;;;0.47;0.47;;;-4.50;99.90;;;;;;5091750;28;20193;-64
2022/01/08 00:55:46;;;;;;;0.10;0.10;;;-4.50;99.90;;;;;;5093245;28;20240;-63
2022/01/08 00:58:12;;;;;;;0.10;0.10;;;-4.50;99.90;;;;;;5091671;28;20272;-62
2022/01/08 01:00:38;;;;;;;3.77;1.60;;;-4.60;99.90;;;;;;5093483;28;20626;-63
2022/01/08 01:03:04;;;;;;;0.00;0.00;;;-4.60;99.90;;;;;;5092575;28;20286;-63
2022/01/08 01:05:30;;;;;;;0.60;0.60;;;-4.60;99.90;;;;;;5093573;28;20300;-64
2022/01/08 01:07:56;;;;;;;2.30;2.20;;;-4.60;99.90;;;;;;5093425;28;20193;-64
2022/01/08 01:10:22;;;;;;;0.10;0.10;;;-4.20;99.90;;;;;;5092644;28;20630;-63
2022/01/08 01:12:47;;;;;;;1.03;0.33;;;-4.20;99.90;;;;;;5092785;28;20648;-63
2022/01/08 01:15:16;;;;;;;0.10;0.10;;;-4.30;99.90;;;;;;5091530;28;20189;-63
2022/01/08 01:17:44;;;;;;;0.20;0.20;;;-4.20;99.90;;;;;;5092561;28;20276;-62
2022/01/08 01:20:13;;;;;;;0.10;0.10;;;-4.00;99.90;;;;;;5092899;28;20185;-64
2022/01/08 01:25:15;;;;;;;0.30;0.30;;;-3.90;99.90;;;;;;5092721;28;20209;-63
2022/01/08 01:30:19;;;;;;;0.20;0.20;;;-4.00;99.90;;;;;;5092666;28;20538;-63
2022/01/08 01:41:16;;;;;;;0.27;0.20;;;-4.10;99.90;;;;;;5092692;28;20213;-63
2022/01/08 01:49:10;;;;;;;0.20;0.20;;;-3.90;99.90;;;;;;5091088;28;20628;-62
2022/01/08 01:51:36;;;;;;;0.83;0.83;;;-3.80;99.90;;;;;;5092492;28;20187;-62
2022/01/08 01:54:03;;;;;;;0.10;0.10;;;-3.70;99.90;;;;;;5092609;28;20187;-63
2022/01/08 01:56:29;;;;;;;1.83;1.50;;;-3.70;99.90;;;;;;5092178;28;20213;-64
2022/01/08 01:58:54;;;;;;;2.33;0.77;;;-3.70;99.90;;;;;;5074238;28;20270;-63
2022/01/08 02:01:20;;;;;;;0.70;0.70;;;-3.70;99.90;;;;;;5092253;28;20181;-63
2022/01/08 02:03:46;;;;;;;2.20;1.67;;;-3.60;99.90;;;;;;5092279;28;21054;-62
2022/01/08 02:06:12;;;;;;;4.00;0.93;;;-3.60;99.90;;;;;;5091785;28;20200;-64
2022/01/08 02:08:38;;;;;;;0.50;0.50;;;-3.60;99.90;;;;;;5092274;28;20202;-63
2022/01/08 02:11:06;;;;;;;0.30;0.30;;;-3.60;99.90;;;;;;5091731;28;20542;-64
2022/01/08 02:13:33;;;;;;;1.03;1.03;;;-3.60;99.90;;;;;;5091056;28;20190;-66
2022/01/08 02:16:01;;;;;;;0.07;0.07;;;-3.60;99.90;;;;;;5074419;28;20186;-62
2022/01/08 02:18:28;;;;;;;7.57;0.53;;;-3.70;99.90;;;;;;5091942;28;20202;-63
2022/01/08 02:20:55;;;;;;;2.73;2.50;;;-3.70;99.90;;;;;;5092006;28;20633;-62
2022/01/08 02:23:22;;;;;;;2.10;0.83;;;-3.80;99.90;;;;;;5091384;28;20231;-63
2022/01/08 02:25:49;;;;;;;0.57;0.57;;;-3.80;99.90;;;;;;5091676;28;20765;-63
2022/01/08 02:28:16;;;;;;;1.10;1.00;;;-3.80;99.90;;;;;;5091922;28;20200;-63
2022/01/08 02:30:42;;;;;;;0.60;0.60;;;-3.80;99.90;;;;;;5092366;28;20185;-63
2022/01/08 02:33:08;;;;;;;0.10;0.10;;;-3.80;99.90;;;;;;5091742;28;20579;-68
2022/01/08 02:35:34;;;;;;;0.10;0.10;;;-3.80;99.90;;;;;;5090559;28;20291;-64
2022/01/08 02:38:00;;;;;;;1.40;1.30;;;-3.80;99.90;;;;;;5092013;28;20522;-63
2022/01/08 02:40:26;;;;;;;4.20;1.10;;;-3.80;99.90;;;;;;5091606;28;20180;-63
2022/01/08 02:43:00;;;;;;;0.20;0.20;;;-3.80;99.90;;;;;;5091538;28;20272;-62
2022/01/08 02:45:26;;;;;;;0.00;0.00;;;-3.80;99.90;;;;;;5091601;28;20207;-64
2022/01/08 02:47:53;;;;;;;0.10;0.10;;;-3.80;99.90;;;;;;5092130;28;20181;-63
2022/01/08 02:50:19;;;;;;;0.57;0.57;;;-3.80;99.90;;;;;;5091787;28;20185;-64
2022/01/08 02:52:46;;;;;;;0.73;0.73;;;-3.70;99.90;;;;;;5091703;28;20516;-64
2022/01/08 02:55:18;;;;;;;0.00;0.00;;;-3.50;99.90;;;;;;5091579;28;20178;-64
2022/01/08 02:57:44;;;;;;;0.53;0.53;;;-3.40;99.90;;;;;;5092108;28;20175;-63
2022/01/08 03:00:13;;;;;;;0.67;0.67;;;-3.50;99.90;;;;;;5093551;28;20183;-64
2022/01/08 03:02:46;;;;;;;1.80;1.70;;;-3.60;99.90;;;;;;5095940;28;20715;-63
2022/01/08 03:05:13;;;;;;;0.37;0.37;;;-3.40;99.90;;;;;;5095563;28;20199;-63
2022/01/08 03:07:40;;;;;;;0.00;0.00;;;-3.50;99.90;;;;;;5095810;28;20184;-64
2022/01/08 03:10:11;;;;;;;0.77;0.77;;;-3.70;99.90;;;;;;5095758;28;20174;-63
2022/01/08 03:12:41;;;;;;;0.30;0.30;;;-3.60;99.90;;;;;;5095625;28;20201;-63
2022/01/08 03:15:11;;;;;;;0.27;0.27;;;-3.60;99.90;;;;;;5095616;28;20196;-62
2022/01/08 03:17:38;;;;;;;0.20;0.20;;;-3.80;99.90;;;;;;5095824;28;20615;-63
2022/01/08 03:20:06;;;;;;;0.73;0.73;;;-3.80;99.90;;;;;;5094220;28;20313;-63
2022/01/08 03:22:33;;;;;;;0.10;0.10;;;-3.90;99.90;;;;;;5095354;28;20198;-63
2022/01/08 03:25:00;;;;;;;0.43;0.43;;;-3.90;99.90;;;;;;5095319;28;20212;-63
2022/01/08 03:27:26;;;;;;;0.30;0.30;;;-3.90;99.90;;;;;;5094790;28;20266;-63
2022/01/08 03:29:52;;;;;;;0.17;0.17;;;-3.90;99.90;;;;;;5095587;28;20267;-63
2022/01/08 03:32:18;;;;;;;0.13;0.13;;;-3.70;99.90;;;;;;5095369;28;20493;-62
2022/01/08 03:34:44;;;;;;;0.10;0.10;;;-3.70;99.90;;;;;;5093601;28;20239;-63
2022/01/08 03:37:10;;;;;;;0.50;0.37;;;-3.60;99.90;;;;;;5095698;28;20545;-64
2022/01/08 03:39:36;;;;;;;0.57;0.57;;;-3.60;99.90;;;;;;5094816;28;20187;-63
2022/01/08 03:42:02;;;;;;;0.00;0.00;;;-3.50;99.90;;;;;;5095217;28;20198;-63
2022/01/08 03:44:29;;;;;;;0.20;0.20;;;-3.40;99.90;;;;;;5095465;28;20219;-63
2022/01/08 03:47:01;;;;;;;1.70;1.00;;;-3.30;99.90;;;;;;5095111;28;20195;-63
2022/01/08 03:49:27;;;;;;;0.30;0.30;;;-3.20;99.90;;;;;;5094853;28;20187;-64
2022/01/08 03:51:54;;;;;;;1.77;1.33;;;-3.20;99.90;;;;;;5093476;28;20181;-64
2022/01/08 03:54:20;;;;;;;0.30;0.30;;;-3.10;99.90;;;;;;5094249;28;20678;-64
2022/01/08 03:56:46;;;;;;;0.00;0.00;;;-3.10;99.90;;;;;;5094847;28;20220;-64
2022/01/08 03:59:12;;;;;;;0.17;0.17;;;-3.10;99.90;;;;;;5094600;28;20172;-69
2022/01/08 04:01:38;;;;;;;0.10;0.10;;;-3.10;99.90;;;;;;5094654;28;20183;-64
2022/01/08 04:04:04;;;;;;;0.47;0.47;;;-3.10;99.90;;;;;;5094232;28;20273;-62
2022/01/08 04:06:30;;;;;;;0.00;0.00;;;-3.10;99.90;;;;;;5094263;28;20256;-63
2022/01/08 04:08:57;;;;;;;0.17;0.17;;;-3.00;99.90;;;;;;5094247;28;20262;-63
2022/01/08 04:11:26;;;;;;;1.27;1.17;;;-2.90;99.90;;;;;;5093645;28;20197;-63
2022/01/08 04:13:54;;;;;;;6.23;0.67;;;-2.90;99.90;;;;;;5094238;28;20194;-64
2022/01/08 04:16:27;;;;;;;1.70;1.03;;;-2.90;99.90;;;;;;5093716;28;20184;-64
2022/01/08 04:18:53;;;;;;;0.10;0.10;;;-2.90;99.90;;;;;;5094202;28;20165;-64
2022/01/08 04:24:03;;;;;;;0.10;0.10;;;-2.90;99.90;;;;;;5094270;28;20574;-64
2022/01/08 04:26:29;;;;;;;0.00;0.00;;;-2.90;99.90;;;;;;5093794;28;20610;-62
2022/01/08 04:28:55;;;;;;;0.10;0.10;;;-2.80;99.90;;;;;;5093693;28;20183;-63
2022/01/08 04:31:22;;;;;;;0.13;0.13;;;-2.80;99.90;;;;;;5093824;28;20187;-63
2022/01/08 04:33:48;;;;;;;0.50;0.50;;;-2.80;99.90;;;;;;5093533;28;20259;-64
2022/01/08 04:36:14;;;;;;;0.43;0.40;;;-2.80;99.90;;;;;;5093817;28;20663;-66
2022/01/08 04:38:40;;;;;;;5.60;1.10;;;-2.70;99.90;;;;;;5093691;28;20214;-64
2022/01/08 04:41:05;;;;;;;0.20;0.20;;;-2.70;99.90;;;;;;5092232;28;20261;-64
2022/01/08 04:43:31;;;;;;;1.03;0.87;;;-2.70;99.90;;;;;;5092962;28;20180;-63
2022/01/08 04:45:57;;;;;;;0.77;0.77;;;-2.70;99.90;;;;;;5093897;28;20191;-63
2022/01/08 04:48:23;;;;;;;0.40;0.37;;;-2.60;99.90;;;;;;5092188;28;20187;-64
2022/01/08 04:50:49;;;;;;;2.23;1.50;;;-2.50;99.90;;;;;;5092177;28;20187;-64
2022/01/08 04:53:14;;;;;;;0.23;0.23;;;-2.40;99.90;;;;;;5093547;28;20184;-63
2022/01/08 04:55:40;;;;;;;0.10;0.10;;;-2.30;99.90;;;;;;5093965;28;20268;-63
2022/01/08 04:58:06;;;;;;;0.50;0.50;;;-2.40;99.90;;;;;;5093396;28;20234;-65
2022/01/08 05:00:33;;;;;;;0.10;0.10;;;-2.40;99.90;;;;;;5092677;28;20185;-63
2022/01/08 05:02:59;;;;;;;0.20;0.20;;;-2.40;99.90;;;;;;5092025;28;20199;-63
2022/01/08 05:05:26;;;;;;;0.57;0.57;;;-2.50;99.90;;;;;;5092954;28;20207;-64
2022/01/08 05:07:52;;;;;;;2.20;1.07;;;-2.50;99.90;;;;;;5093565;28;20176;-64
2022/01/08 05:10:18;;;;;;;0.67;0.67;;;-2.40;99.90;;;;;;5093085;28;20631;-64
2022/01/08 05:12:44;;;;;;;0.53;0.53;;;-2.50;99.90;;;;;;5092843;28;20257;-64
2022/01/08 05:15:11;;;;;;;3.10;0.50;;;-2.50;99.90;;;;;;5093198;28;20191;-64
2022/01/08 05:17:39;;;;;;;0.17;0.17;;;-2.50;99.90;;;;;;5092957;28;20219;-64
2022/01/08 05:20:14;;;;;;;0.10;0.10;;;-2.50;99.90;;;;;;5093100;28;20278;-63
2022/01/08 05:25:13;;;;;;;0.00;0.00;;;-2.50;99.90;;;;;;5092795;28;20638;-63
2022/01/08 05:27:39;;;;;;;0.30;0.30;;;-2.50;99.90;;;;;;5092414;28;20185;-63
2022/01/08 05:30:05;;;;;;;0.33;0.33;;;-2.50;99.90;;;;;;5092529;28;20198;-64
2022/01/08 05:32:31;;;;;;;0.00;0.00;;;-2.50;99.90;;;;;;5092378;28;20291;-64
2022/01/08 05:34:58;;;;;;;11.43;2.17;;;-2.50;99.90;;;;;;5092863;28;20664;-64
2022/01/08 05:37:24;;;;;;;0.10;0.10;;;-2.50;99.90;;;;;;5092538;28;20180;-64
2022/01/08 05:39:50;;;;;;;0.00;0.00;;;-2.50;99.90;;;;;;5092641;28;20185;-64
2022/01/08 05:42:17;;;;;;;0.20;0.20;;;-2.40;99.90;;;;;;5092455;28;20192;-63
2022/01/08 05:44:42;;;;;;;0.50;0.50;;;-2.40;99.90;;;;;;5091950;28;20205;-62
2022/01/08 05:47:08;;;;;;;0.10;0.10;;;-2.40;99.90;;;;;;5090934;28;20744;-62
2022/01/08 05:49:34;;;;;;;0.20;0.20;;;-2.40;99.90;;;;;;5092405;28;20211;-63
2022/01/08 05:52:00;;;;;;;0.30;0.30;;;-2.40;99.90;;;;;;5092358;28;20245;-64
2022/01/08 05:54:26;;;;;;;1.17;1.07;;;-2.40;99.90;;;;;;5092198;28;20194;-64
2022/01/08 05:56:52;;;;;;;0.80;0.60;;;-2.40;99.90;;;;;;5092526;28;20238;-64
2022/01/08 05:59:18;;;;;;;1.60;1.40;;;-2.30;99.90;;;;;;5092020;28;20254;-63
2022/01/08 06:01:44;;;;;;;0.20;0.20;;;-2.30;99.90;;;;;;5091674;28;20199;-63
2022/01/08 06:04:10;;;;;;;1.50;1.07;;;-2.30;99.90;;;;;;5092505;28;20220;-63
2022/01/08 06:06:39;;;;;;;2.00;1.57;;;-2.30;99.90;;;;;;5091800;28;20180;-64
2022/01/08 06:09:05;;;;;;;0.57;0.57;;;-2.30;99.90;;;;;;5092146;28;20180;-62
2022/01/08 06:11:30;;;;;;;0.33;0.33;;;-2.30;99.90;;;;;;5091609;28;20195;-65
2022/01/08 06:13:56;;;;;;;1.93;1.70;;;-2.20;99.90;;;;;;5091823;28;20693;-64
2022/01/08 06:16:22;;;;;;;0.83;0.53;;;-2.20;99.90;;;;;;5091750;28;20188;-64
2022/01/08 06:18:48;;;;;;;1.03;0.97;;;-2.20;99.90;;;;;;5091859;28;20243;-64
2022/01/08 06:21:14;;;;;;;0.00;0.00;;;-2.20;99.90;;;;;;5090697;28;20180;-64
2022/01/08 06:23:40;;;;;;;0.50;0.50;;;-2.20;99.90;;;;;;5091596;28;20232;-64
2022/01/08 06:26:06;;;;;;;0.47;0.47;;;-2.10;99.90;;;;;;5091828;28;20636;-63
2022/01/08 06:28:32;;;;;;;0.13;0.13;;;-2.10;99.90;;;;;;5090197;28;20191;-65
2022/01/08 06:30:58;;;;;;;0.10;0.10;;;-2.10;99.90;;;;;;5091817;28;20176;-64
2022/01/08 06:33:24;;;;;;;2.27;2.07;;;-2.00;99.90;;;;;;5074962;28;20250;-64
2022/01/08 06:35:51;;;;;;;1.50;0.97;;;-2.00;99.90;;;;;;5095850;28;20175;-64
2022/01/08 06:38:18;;;;;;;0.07;0.07;;;-1.90;99.90;;;;;;5096214;28;20223;-65
2022/01/08 06:40:45;;;;;;;0.57;0.57;;;-1.90;99.90;;;;;;5095055;28;20591;-64
2022/01/08 06:43:11;;;;;;;0.07;0.07;;;-1.90;99.90;;;;;;5095581;28;20172;-64
2022/01/08 06:45:37;;;;;;;1.13;0.83;;;-1.80;99.90;;;;;;5094967;28;21062;-64
2022/01/08 06:48:02;;;;;;;0.00;0.00;;;-1.60;99.90;;;;;;5095342;28;20180;-72
2022/01/08 06:50:28;;;;;;;1.07;1.07;;;-1.60;99.90;;;;;;5085244;28;20261;-79
2022/01/08 06:52:55;;;;;;;2.70;0.97;;;-1.70;99.90;;;;;;5075578;28;20196;-74
2022/01/08 06:55:21;;;;;;;0.17;0.17;;;-1.70;99.90;;;;;;5086920;28;20196;-68
2022/01/08 06:57:47;;;;;;;0.10;0.10;;;-1.60;99.90;;;;;;5093806;28;20250;-70
2022/01/08 07:00:13;;;;;;;0.13;0.13;;;-1.60;99.90;;;;;;5096013;28;20185;-75
2022/01/08 07:02:39;;;;;;;0.93;0.60;;;-1.60;99.90;;;;;;5095817;28;20569;-77
2022/01/08 07:05:05;;;;;;;0.10;0.10;;;-1.40;99.90;;;;;;5093761;28;20262;-68
2022/01/08 07:07:31;;;;;;;0.77;0.77;;;-1.40;99.90;;;;;;5094930;28;20184;-67
2022/01/08 07:09:56;;;;;;;1.40;1.30;;;-1.40;99.90;;;;;;5093380;28;20188;-63
2022/01/08 07:12:22;;;;;;;2.20;2.00;;;-1.30;99.90;;;;;;5095110;28;20217;-66
2022/01/08 07:14:48;;;;;;;0.27;0.27;;;-1.30;99.90;;;;;;5094802;28;20241;-64
2022/01/08 07:17:14;;;;;;;1.13;1.13;;;-1.20;99.90;;;;;;5064512;28;20636;-70
2022/01/08 07:19:39;;;;;;;0.83;0.77;;;-1.20;99.90;;;;;;5085474;28;20185;-69
2022/01/08 07:22:05;;;;;;;0.27;0.20;;;-1.20;99.90;;;;;;5082273;28;20173;-69
2022/01/08 07:24:31;;;;;;;0.57;0.57;;;-1.10;99.90;;;;;;5084364;28;20295;-70
2022/01/08 07:26:57;;;;;;;0.63;0.63;;;-1.00;99.90;;;;;;5084806;28;20180;-64
2022/01/08 07:29:22;;;;;;;0.47;0.47;;;-1.00;99.90;;;;;;5083974;28;20169;-62
2022/01/08 07:31:48;;;;;;;1.33;1.33;;;-1.00;99.90;;;;;;5087399;23;20240;-73
2022/01/08 07:34:14;;;;;;;0.30;0.30;;;-1.00;99.90;;;;;;5084438;28;20193;-69
2022/01/08 07:36:40;;;;;;;2.53;1.33;;;-1.00;99.90;;;;;;5079672;28;20196;-66
2022/01/08 07:39:05;;;;;;;1.30;1.13;;;-1.00;99.90;;;;;;5092707;28;20203;-67
2022/01/08 07:41:31;;;;;;;0.37;0.37;;;-0.90;99.90;;;;;;5085571;28;20287;-67
2022/01/08 07:43:57;;;;;;;2.07;1.83;;;-0.90;99.90;;;;;;5092275;28;20213;-64
2022/01/08 07:46:23;;;;;;;0.40;0.37;;;-0.80;99.90;;;;;;5092439;28;20216;-65
2022/01/08 07:48:49;;;;;;;0.20;0.20;;;-0.90;99.90;;;;;;5090001;28;20188;-65
2022/01/08 07:51:14;;;;;;;4.43;1.93;;;-0.80;99.90;;;;;;5072301;22;20739;-71
2022/01/08 07:53:40;;;;;;;0.10;0.10;;;-0.80;99.90;;;;;;5063046;28;20222;-66
2022/01/08 07:56:06;;;;;;;0.60;0.60;;;-0.80;99.90;;;;;;5061486;28;20189;-65
2022/01/08 07:58:31;;;;;;;1.30;0.60;;;-0.70;99.90;;;;;;5072429;28;20243;-65
2022/01/08 08:00:58;;;;;;;0.30;0.30;;;-0.70;99.90;;;;;;5072228;28;20205;-62
2022/01/08 08:03:25;;;;;;;0.77;0.77;;;-0.60;99.90;;;;;;5065353;28;20252;-68
2022/01/08 08:05:50;;;;;;;0.50;0.50;;;-0.60;99.90;;;;;;5068793;28;20225;-63
2022/01/08 08:08:17;;;;;;;1.20;1.07;;;-0.60;99.90;;;;;;5054310;28;20193;-65
2022/01/08 08:10:47;;;;;;;3.60;1.20;;;-0.60;99.90;;;;;;5072822;28;20181;-63
2022/01/08 08:13:14;;;;;;;0.70;0.70;;;-0.60;99.90;;;;;;5071972;28;20189;-65
2022/01/08 08:15:39;;;;;;;0.10;0.10;;;-0.60;99.90;;;;;;5061280;28;20525;-61
2022/01/08 08:18:05;;;;;;;0.10;0.10;;;-0.60;99.90;;;;;;5067513;28;20664;-62
2022/01/08 08:20:31;;;;;;;3.30;1.37;;;-0.60;99.90;;;;;;5066690;28;20221;-61
2022/01/08 08:22:56;;;;;;;1.80;1.70;;;-0.60;99.90;;;;;;5059453;28;20186;-59
2022/01/08 08:25:22;;;;;;;0.53;0.53;;;-0.60;99.90;;;;;;5058037;28;20284;-59
2022/01/08 08:27:50;;;;;;;1.10;1.10;;;-0.50;99.90;;;;;;5058689;28;20319;-60
2022/01/08 08:30:15;;;;;;;0.40;0.40;;;-0.50;99.90;;;;;;5052216;28;20196;-61
2022/01/08 08:32:41;;;;;;;0.90;0.90;;;-0.60;99.90;;;;;;5041380;28;20285;-64
2022/01/08 08:35:09;;;;;;;0.47;0.47;;;-0.50;99.90;;;;;;5067726;28;20194;-60
2022/01/08 08:37:36;;;;;;;0.40;0.40;;;-0.40;99.90;;;;;;5053278;28;20193;-60
2022/01/08 08:40:06;;;;;;;1.20;0.53;;;-0.40;99.90;;;;;;5063717;28;20321;-63
2022/01/08 08:42:32;;;;;;;4.03;2.30;;;-0.40;99.90;;;;;;5067504;28;20443;-62
2022/01/08 08:44:58;;;;;;;12.30;1.50;;;-0.20;99.90;;;;;;5067194;28;20287;-63
2022/01/08 08:47:24;;;;;;;0.97;0.97;;;0.00;99.90;;;;;;5067476;28;20190;-66
2022/01/08 08:49:49;;;;;;;1.77;1.63;;;0.10;99.90;;;;;;5064311;28;20238;-61
2022/01/08 08:52:15;;;;;;;2.43;2.23;;;0.30;99.90;;;;;;5033424;28;20266;-60
2022/01/08 08:54:43;;;;;;;0.47;0.47;;;0.60;99.90;;;;;;5058267;28;20191;-61
2022/01/08 08:57:09;;;;;;;1.33;1.20;;;0.60;99.90;;;;;;5049964;28;20551;-62
2022/01/08 08:59:36;;;;;;;1.23;1.13;;;0.70;99.90;;;;;;5070622;28;20187;-61
2022/01/08 09:02:02;;;;;;;0.10;0.10;;;0.70;99.90;;;;;;5071665;28;20606;-63
2022/01/08 09:04:28;;;;;;;0.67;0.67;;;0.80;99.90;;;;;;5070014;28;20226;-63
2022/01/08 09:06:57;;;;;;;0.70;0.70;;;0.80;99.90;;;;;;5054106;28;20190;-61
2022/01/08 09:09:25;;;;;;;0.30;0.30;;;0.90;99.90;;;;;;5068903;28;20315;-61
2022/01/08 09:11:51;;;;;;;0.70;0.70;;;0.90;99.90;;;;;;5063772;28;20193;-61
2022/01/08 09:14:17;;;;;;;0.30;0.30;;;1.00;99.90;;;;;;5051985;28;20191;-61
2022/01/08 09:16:52;;;;;;;0.30;0.30;;;0.90;99.90;;;;;;5071002;28;20300;-61
2022/01/08 09:19:21;;;;;;;1.07;0.90;;;1.00;99.90;;;;;;5069070;28;20273;-66
2022/01/08 09:21:47;;;;;;;0.37;0.37;;;1.00;99.90;;;;;;5066452;28;20211;-63
2022/01/08 09:24:15;;;;;;;1.57;1.47;;;1.00;99.90;;;;;;5059292;28;20219;-64
2022/01/08 09:26:41;;;;;;;2.57;1.73;;;0.90;99.90;;;;;;5069130;28;20207;-62
2022/01/08 09:29:07;;;;;;;0.47;0.47;;;0.90;99.90;;;;;;5061904;28;20591;-62
2022/01/08 09:31:33;;;;;;;1.37;0.73;;;1.10;99.90;;;;;;5051018;28;20188;-63
2022/01/08 09:34:00;;;;;;;11.73;2.73;;;1.10;99.90;;;;;;5069282;28;20199;-62
2022/01/08 09:36:26;;;;;;;1.63;1.10;;;1.00;99.90;;;;;;5053389;28;20257;-62
2022/01/08 09:38:52;;;;;;;0.83;0.83;;;0.90;99.90;;;;;;5071201;28;20186;-66
2022/01/08 09:41:18;;;;;;;1.17;1.10;;;1.00;99.90;;;;;;5053948;28;20218;-62
2022/01/08 09:43:44;;;;;;;2.40;2.23;;;1.00;99.90;;;;;;5059569;28;20253;-66
2022/01/08 09:46:10;;;;;;;1.00;0.87;;;1.00;99.90;;;;;;5051282;28;20212;-63
2022/01/08 09:48:36;;;;;;;0.33;0.33;;;1.00;99.90;;;;;;5050971;28;20236;-62
2022/01/08 09:51:02;;;;;;;0.07;0.07;;;1.00;99.90;;;;;;5051003;28;20232;-65
2022/01/08 09:53:28;;;;;;;7.33;1.37;;;0.90;99.90;;;;;;5048568;28;20176;-61
2022/01/08 09:55:54;;;;;;;0.20;0.20;;;0.90;99.90;;;;;;5048853;28;20213;-62
2022/01/08 09:58:20;;;;;;;6.83;1.30;;;0.90;99.90;;;;;;5048781;28;20242;-64
2022/01/08 10:00:46;;;;;;;5.87;0.43;;;0.90;99.90;;;;;;5031072;28;20665;-64
2022/01/08 10:03:21;;;;;;;0.53;0.53;;;0.80;99.90;;;;;;5049033;28;20650;-62
2022/01/08 10:05:54;;;;;;;3.40;1.80;;;0.80;99.90;;;;;;5049709;28;20199;-63
2022/01/08 10:08:31;;;;;;;0.67;0.67;;;0.80;99.90;;;;;;5033280;28;20192;-63
2022/01/08 10:11:04;;;;;;;1.27;1.17;;;0.90;99.90;;;;;;5050470;28;20267;-62
2022/01/08 10:13:34;;;;;;;0.60;0.60;;;0.80;99.90;;;;;;5050649;28;20206;-63
2022/01/08 10:18:50;;;;;;;2.53;2.33;;;1.00;99.90;;;;;;4990459;28;20244;-62
2022/01/08 10:21:15;;;;;;;1.50;1.40;;;1.10;99.90;;;;;;5032708;28;20207;-64
2022/01/08 10:23:47;;;;;;;5.00;2.30;;;1.20;99.90;;;;;;5050434;28;20222;-64
2022/01/08 10:26:18;;;;;;;2.10;1.50;;;1.30;99.90;;;;;;5016392;28;20672;-62
2022/01/08 10:28:44;;;;;;;1.37;1.27;;;1.30;99.90;;;;;;5036259;28;20176;-62
2022/01/08 10:31:21;;;;;;;2.23;1.90;;;1.30;99.90;;;;;;5052164;28;20516;-63
2022/01/08 10:33:49;;;;;;;0.70;0.70;;;1.20;99.90;;;;;;5070235;28;20212;-64
2022/01/08 10:36:21;;;;;;;0.10;0.10;;;1.20;99.90;;;;;;5070942;28;20184;-62
2022/01/08 10:38:51;;;;;;;3.60;2.10;;;1.10;99.90;;;;;;5070640;28;20557;-62
2022/01/08 10:41:17;;;;;;;1.37;1.27;;;1.10;99.90;;;;;;5071009;28;20164;-62
2022/01/08 10:43:45;;;;;;;1.37;1.27;;;1.10;99.90;;;;;;5052238;28;20635;-64
2022/01/08 10:46:17;;;;;;;0.33;0.33;;;1.10;99.90;;;;;;5052872;28;20202;-62
2022/01/08 10:48:50;;;;;;;2.23;1.60;;;1.00;99.90;;;;;;5070548;28;20194;-63
2022/01/08 10:51:23;;;;;;;1.17;1.10;;;1.00;99.90;;;;;;5070624;28;20729;-65
2022/01/08 10:53:53;;;;;;;0.40;0.40;;;0.90;99.90;;;;;;5052724;28;20175;-61
2022/01/08 10:56:28;;;;;;;9.33;1.70;;;0.80;99.90;;;;;;5070733;28;20183;-63
2022/01/08 10:58:59;;;;;;;1.07;1.07;;;0.80;99.90;;;;;;5053040;28;20206;-62
2022/01/08 11:01:41;;;;;;;0.00;0.00;;;0.90;99.90;;;;;;5052640;28;20203;-62
2022/01/08 11:04:08;;;;;;;2.07;1.40;;;0.90;99.90;;;;;;5058690;28;20297;-63
2022/01/08 11:06:49;;;;;;;4.00;1.87;;;0.80;99.90;;;;;;5054103;28;20191;-62
2022/01/08 11:09:15;;;;;;;0.20;0.20;;;0.80;99.90;;;;;;5066210;28;20187;-62
2022/01/08 11:11:42;;;;;;;25.77;3.60;;;0.80;99.90;;;;;;5050938;28;20185;-64
2022/01/08 11:14:21;;;;;;;0.10;0.10;;;0.80;99.90;;;;;;5050373;28;20234;-62
2022/01/08 11:16:53;;;;;;;1.23;0.77;;;0.80;99.90;;;;;;5032150;28;20216;-65
2022/01/08 11:19:20;;;;;;;0.87;0.87;;;0.80;99.90;;;;;;5068625;28;20270;-62
2022/01/08 11:21:49;;;;;;;0.90;0.60;;;0.90;99.90;;;;;;5055230;28;20532;-64
2022/01/08 11:24:17;;;;;;;0.43;0.43;;;0.90;99.90;;;;;;5072817;28;20207;-62
2022/01/08 11:26:45;;;;;;;3.43;2.80;;;1.00;99.90;;;;;;5053471;28;20188;-62
2022/01/08 11:29:11;;;;;;;4.43;0.83;;;1.20;99.90;;;;;;5064006;28;20179;-62
2022/01/08 11:31:37;;;;;;;1.33;0.93;;;1.30;99.90;;;;;;5052426;28;20193;-63
2022/01/08 11:34:09;;;;;;;2.47;0.67;;;1.40;99.90;;;;;;5052356;28;20264;-61
2022/01/08 11:36:35;;;;;;;0.80;0.80;;;1.40;99.90;;;;;;5035269;28;20178;-62
2022/01/08 11:39:02;;;;;;;0.87;0.87;;;1.30;99.90;;;;;;5052574;28;20188;-66
2022/01/08 11:41:31;;;;;;;0.63;0.63;;;1.50;99.90;;;;;;5032736;28;20334;-63
2022/01/08 11:43:56;;;;;;;3.13;2.30;;;1.60;99.90;;;;;;5065412;28;20234;-63
2022/01/08 11:46:24;;;;;;;0.63;0.57;;;1.70;99.90;;;;;;5053654;28;20350;-64
2022/01/08 11:48:51;;;;;;;0.60;0.60;;;1.70;99.90;;;;;;5071653;28;20185;-67
2022/01/08 11:51:18;;;;;;;1.23;1.17;;;1.70;99.90;;;;;;5046785;28;20231;-64
2022/01/08 11:53:47;;;;;;;3.43;2.27;;;1.70;99.90;;;;;;5030949;28;20178;-63
2022/01/08 11:56:37;;;;;;;1.50;1.10;;;1.70;99.90;;;;;;5032010;28;20951;-62
2022/01/08 11:59:07;;;;;;;0.87;0.87;;;1.70;99.90;;;;;;5033935;28;20234;-64
2022/01/08 12:01:34;;;;;;;3.50;2.57;;;1.80;99.90;;;;;;5033156;28;20175;-63
2022/01/08 12:04:00;;;;;;;6.40;1.73;;;1.90;99.90;;;;;;5033573;28;20198;-63
2022/01/08 12:06:29;;;;;;;5.63;1.97;;;1.90;99.90;;;;;;5033471;28;20182;-62
2022/01/08 12:09:19;;;;;;;3.03;2.00;;;2.00;99.90;;;;;;5033334;28;20526;-62
2022/01/08 12:11:46;;;;;;;0.77;0.73;;;1.90;99.90;;;;;;5048332;28;20220;-64
2022/01/08 12:14:16;;;;;;;1.40;1.33;;;1.90;99.90;;;;;;5033517;28;20182;-62
2022/01/08 12:16:44;;;;;;;2.40;1.93;;;2.00;99.90;;;;;;5047922;28;20190;-61
2022/01/08 12:19:26;;;;;;;1.30;1.20;;;2.00;99.90;;;;;;5031795;28;20195;-65
2022/01/08 12:21:52;;;;;;;0.57;0.43;;;2.10;99.90;;;;;;5048400;28;20201;-63
2022/01/08 12:24:27;;;;;;;0.10;0.10;;;2.10;99.90;;;;;;5014092;28;20259;-61
2022/01/08 12:27:02;;;;;;;1.30;1.20;;;2.20;99.90;;;;;;5032717;28;20170;-63
2022/01/08 12:29:38;;;;;;;1.30;0.63;;;2.30;99.90;;;;;;5023116;28;20306;-61
2022/01/08 12:32:36;;;;;;;1.80;1.47;;;2.30;99.90;;;;;;5013027;28;20674;-61
2022/01/08 12:35:22;;;;;;;0.70;0.70;;;2.30;99.90;;;;;;5013793;28;20171;-63
2022/01/08 12:37:51;;;;;;;2.73;0.87;;;2.40;99.90;;;;;;5013576;28;20168;-61
2022/01/08 12:40:34;;;;;;;1.00;1.00;;;2.50;99.90;;;;;;5011883;28;20184;-62
2022/01/08 12:43:15;;;;;;;0.40;0.40;;;2.50;99.90;;;;;;5028731;28;20178;-61
2022/01/08 12:45:42;;;;;;;0.83;0.80;;;2.50;99.90;;;;;;5012462;28;20294;-63
2022/01/08 12:48:09;;;;;;;2.27;1.10;;;2.20;99.90;;;;;;5013408;28;20266;-62
2022/01/08 12:50:37;;;;;;;1.30;1.20;;;2.20;99.90;;;;;;5035929;28;20241;-62
2022/01/08 12:53:05;;;;;;;1.57;1.47;;;2.10;99.90;;;;;;5052964;28;20211;-61
2022/01/08 12:56:05;;;;;;;1.67;1.57;;;2.10;99.90;;;;;;5052801;28;20196;-64
2022/01/08 12:58:37;;;;;;;0.30;0.30;;;2.10;99.90;;;;;;5052749;28;20209;-65
2022/01/08 13:01:09;;;;;;;2.87;0.97;;;2.10;99.90;;;;;;5052746;28;20158;-62
2022/01/08 13:03:45;;;;;;;1.97;1.77;;;2.00;99.90;;;;;;5052338;28;20175;-65
2022/01/08 13:06:13;;;;;;;1.30;0.63;;;2.00;99.90;;;;;;5052581;28;20275;-62
2022/01/08 13:08:41;;;;;;;0.33;0.33;;;2.00;99.90;;;;;;5052451;28;20185;-62
2022/01/08 13:11:09;;;;;;;6.13;1.27;;;2.00;99.90;;;;;;5034933;28;20186;-64
2022/01/08 13:13:47;;;;;;;0.53;0.53;;;2.00;99.90;;;;;;5052795;28;20189;-63
2022/01/08 13:16:27;;;;;;;0.47;0.47;;;2.00;99.90;;;;;;5052732;28;20208;-63
2022/01/08 13:18:57;;;;;;;1.33;1.23;;;1.90;99.90;;;;;;5050512;28;20538;-63
2022/01/08 13:21:28;;;;;;;1.03;0.80;;;1.80;99.90;;;;;;5052236;28;20584;-66